Terminal Aerodrome Forecast
Issued by NWS

Home | Current Version | Previous Version | Text Only | Print | Product List | Glossary On
Versions: 1 2 3 4 5 6 7 8 9 10 11 12 13 14 15 16 17 18 19 20
000
FTUS42 TJSJ 210200 AAA
TAFKPK
TAF AMD
TKPK 210240Z 2103/2124 06015KT P6SM SCT018
      TEMPO 2103/2104 07016G26KT 3SM SHRA SCT012 BKN018
     FM210600 07014KT P6SM -RA SCT018
      TEMPO 2108/2112 VRB14G26KT 5SM TSRA SCT012CB BKN018
     FM211300 08015G24KT P6SM -RA VCTS SCT015CB SCT020 BKN040
      AMD NOT SKED 2102/2111=

USA.gov is the U.S. government's official web portal to all federal, state and local government web resources and services.